עמוד ראשי
METAR-TAF:

METAR-TAF

שדות תעופה :

Ocala International Airport (Jim Taylor Field)

Ocala, פלורידה, ארצות הברית

קו רוחב: 29-10N, קו אורך: 082-13W, גובה: 27מטר

תצפית מזג אוויר נוכחית

הדו"ח נערך לפני 1 שעות ו 4דקות, בשעה 10:51 UTC
רוח רגועה
טמפרטורת 24 צלסיוס
לחות 94%
לחץ 1014 hPa
ראות: 16.1קילומטר
שמיים נקיים

METAR: KOCF 151051Z 00000KT 10SM CLR 24/23 A2995 RMK AO2 SLP142 T02390233 $

זמן: 07:55 (11:55 UTC)


TAF: חסר

תצפיות ותחזיות מזג אוויר לגבי יותר מ- 4,000 שדות תעופה ברחבי העולם. דוחות METAR ו- TAF.

התחנות הזמינות מסומנות בנקודות צהובות ואדומות על גבי המפה.

העבר את העכבר לנקודה הצבעונית על מנת לראות את שם התחנה.

לאחר מכן, לחץ כדי לראות את תוכן ואת תחזיות מזג האוויר.

כדי לשנות את המפה: לחץ על הכפתורים הירוקים עם הפלוס השחור כדי להתקרב; על הכפתור הירוק עם המקף כדי להתרחק; או בחיצים הירוקים למפות סמוכות.


METAR-TAF: